createdAt,value
2022-08-17T00:00:35.042Z,10.50
2022-08-17T00:03:10.015Z,10.68
2022-08-17T00:05:42.014Z,10.45
2022-08-17T00:08:10.236Z,10.57
2022-08-17T00:10:40.323Z,10.60
2022-08-17T00:13:09.880Z,10.80
2022-08-17T00:15:38.451Z,11.57
2022-08-17T00:19:01.685Z,10.80
2022-08-17T00:20:54.584Z,11.10
2022-08-17T00:23:23.058Z,11.50
2022-08-17T00:25:53.166Z,11.48
2022-08-17T00:28:21.211Z,11.02
2022-08-17T00:30:53.521Z,11.32
2022-08-17T00:33:24.372Z,11.55
2022-08-17T00:35:52.487Z,11.43
2022-08-17T00:38:20.521Z,11.07
2022-08-17T00:40:51.842Z,10.63
2022-08-17T00:43:30.471Z,10.60
2022-08-17T00:45:58.950Z,10.50
2022-08-17T00:48:29.839Z,10.63
2022-08-17T00:51:01.634Z,10.95
2022-08-17T00:53:31.628Z,10.80
2022-08-17T00:56:01.622Z,9.90
2022-08-17T00:58:36.377Z,9.85
2022-08-17T01:01:05.377Z,9.90
2022-08-17T01:03:33.670Z,9.93
2022-08-17T01:06:02.227Z,9.73
2022-08-17T01:08:31.549Z,9.70
2022-08-17T01:11:02.355Z,9.73
2022-08-17T01:13:40.766Z,10.23
2022-08-17T01:16:15.932Z,9.90
2022-08-17T01:18:45.342Z,9.50
2022-08-17T01:21:17.579Z,9.63
2022-08-17T01:23:46.810Z,9.50
2022-08-17T01:26:14.783Z,9.30
2022-08-17T01:28:53.934Z,8.90
2022-08-17T01:31:25.402Z,9.50
2022-08-17T01:33:53.285Z,8.77
2022-08-17T01:36:21.215Z,8.68
2022-08-17T01:38:50.524Z,8.90
2022-08-17T01:41:18.666Z,8.82
2022-08-17T01:43:49.562Z,8.98
2022-08-17T01:46:21.969Z,8.77
2022-08-17T01:48:51.195Z,8.90
2022-08-17T01:51:19.791Z,8.18
2022-08-17T01:53:53.160Z,8.38
2022-08-17T01:56:24.623Z,8.20
2022-08-17T01:58:52.623Z,8.60
2022-08-17T02:01:28.027Z,8.52
2022-08-17T02:04:00.586Z,8.95
2022-08-17T02:06:31.318Z,8.90
2022-08-17T02:09:16.706Z,8.82
2022-08-17T02:11:46.152Z,8.52
2022-08-17T02:14:14.671Z,8.30
2022-08-17T02:16:43.019Z,8.77
2022-08-17T02:19:12.857Z,8.45
2022-08-17T02:21:42.250Z,8.25
2022-08-17T02:24:11.885Z,8.52
2022-08-17T02:26:41.137Z,8.50
2022-08-17T02:29:09.020Z,7.93
2022-08-17T02:31:37.828Z,8.40
2022-08-17T02:34:06.236Z,8.55
2022-08-17T02:36:35.249Z,7.95
2022-08-17T02:39:04.211Z,8.73
2022-08-17T02:41:32.073Z,8.35
2022-08-17T02:44:01.424Z,8.80
2022-08-17T02:46:31.021Z,8.63
2022-08-17T02:48:58.954Z,9.00
2022-08-17T02:51:27.400Z,8.50
2022-08-17T02:54:35.752Z,8.52
2022-08-17T02:56:43.497Z,8.20
2022-08-17T02:59:12.733Z,8.68
2022-08-17T03:01:40.884Z,8.30
2022-08-17T03:04:08.830Z,8.63
2022-08-17T03:06:37.387Z,8.60
2022-08-17T03:09:05.368Z,8.70
2022-08-17T03:11:33.256Z,8.20
2022-08-17T03:14:00.976Z,8.13
2022-08-17T03:16:30.232Z,8.10
2022-08-17T03:18:58.071Z,8.43
2022-08-17T03:21:25.984Z,8.80
2022-08-17T03:23:54.435Z,8.30
2022-08-17T03:26:22.570Z,8.60
2022-08-17T03:28:50.441Z,8.55
2022-08-17T03:31:18.674Z,8.13
2022-08-17T03:33:47.953Z,8.50
2022-08-17T03:36:15.808Z,8.15
2022-08-17T03:38:43.705Z,9.73
2022-08-17T03:41:13.938Z,11.00
2022-08-17T03:43:41.801Z,9.02
2022-08-17T03:46:35.069Z,8.55
2022-08-17T03:49:23.557Z,8.75
2022-08-17T03:52:08.964Z,8.57
2022-08-17T03:54:54.297Z,8.65
2022-08-17T03:57:22.421Z,8.50
2022-08-17T03:59:50.675Z,8.43
2022-08-17T04:02:21.215Z,8.70
2022-08-17T04:04:51.316Z,8.25
2022-08-17T04:07:19.841Z,8.35
2022-08-17T04:09:47.735Z,7.97
2022-08-17T04:12:16.576Z,8.13
2022-08-17T04:14:52.233Z,7.88
2022-08-17T04:17:23.628Z,8.18
2022-08-17T04:19:53.223Z,7.68
2022-08-17T04:22:30.152Z,8.02
2022-08-17T04:25:05.170Z,7.40
2022-08-17T04:27:33.131Z,8.17
2022-08-17T04:30:01.082Z,7.63
2022-08-17T04:33:04.735Z,7.40
2022-08-17T04:35:21.207Z,7.45
2022-08-17T04:37:49.263Z,16.73
2022-08-17T04:40:35.117Z,7.90
2022-08-17T04:43:05.046Z,7.35
2022-08-17T04:45:32.981Z,7.68
2022-08-17T04:48:01.281Z,7.55
2022-08-17T04:50:30.679Z,7.85
2022-08-17T04:52:58.709Z,8.02
2022-08-17T04:55:26.971Z,8.10
2022-08-17T04:57:54.814Z,8.50
2022-08-17T05:00:25.632Z,8.70
2022-08-17T05:02:55.932Z,9.63
2022-08-17T05:05:26.515Z,9.98
2022-08-17T05:07:57.511Z,9.05
2022-08-17T05:10:27.584Z,8.13
2022-08-17T05:12:59.588Z,7.82
2022-08-17T05:15:28.008Z,7.90
2022-08-17T05:17:56.101Z,8.00
2022-08-17T05:20:24.826Z,7.50
2022-08-17T05:22:54.441Z,8.10
2022-08-17T05:25:25.856Z,7.40
2022-08-17T05:27:55.097Z,6.57
2022-08-17T05:30:24.343Z,7.43
2022-08-17T05:32:53.997Z,7.15
2022-08-17T05:35:22.594Z,7.43
2022-08-17T05:37:50.758Z,8.48
2022-08-17T05:40:19.933Z,7.70
2022-08-17T05:42:49.802Z,8.03
2022-08-17T05:45:18.946Z,7.32
2022-08-17T05:48:08.128Z,7.23
2022-08-17T05:50:45.179Z,7.13
2022-08-17T05:53:23.863Z,7.47
2022-08-17T05:56:13.119Z,7.35
2022-08-17T05:59:04.136Z,7.13
2022-08-17T06:01:39.858Z,7.22
2022-08-17T06:04:17.865Z,6.90
2022-08-17T06:06:50.710Z,6.90
2022-08-17T06:09:34.175Z,6.70
2022-08-17T06:12:07.803Z,6.80
2022-08-17T06:14:53.417Z,6.78
2022-08-17T06:17:22.965Z,6.40
2022-08-17T06:19:54.511Z,6.50
2022-08-17T06:22:25.124Z,6.57
2022-08-17T06:24:56.720Z,6.45
2022-08-17T06:27:30.991Z,6.53
2022-08-17T06:30:09.145Z,6.00
2022-08-17T06:32:38.146Z,7.38
2022-08-17T06:35:08.319Z,8.50
2022-08-17T06:37:50.538Z,8.13
2022-08-17T06:40:33.791Z,6.50
2022-08-17T06:43:12.849Z,6.20
2022-08-17T06:45:49.098Z,6.35
2022-08-17T06:48:24.287Z,6.57
2022-08-17T06:50:55.054Z,6.63
2022-08-17T06:53:26.231Z,6.43
2022-08-17T06:55:59.842Z,6.75
2022-08-17T06:58:31.257Z,10.07
2022-08-17T07:01:05.690Z,6.63
2022-08-17T07:03:37.650Z,6.40
2022-08-17T07:06:09.242Z,6.00
2022-08-17T07:08:46.176Z,6.32
2022-08-17T07:11:17.246Z,6.40
2022-08-17T07:13:51.701Z,6.13
2022-08-17T07:16:27.849Z,6.40
2022-08-17T07:18:57.294Z,6.17
2022-08-17T07:21:38.604Z,6.30
2022-08-17T07:24:26.329Z,6.30
2022-08-17T07:27:07.436Z,6.18
2022-08-17T07:29:40.285Z,6.50
2022-08-17T07:32:11.698Z,6.32
2022-08-17T07:35:23.054Z,5.97
2022-08-17T07:37:54.466Z,5.88
2022-08-17T07:40:26.396Z,5.60
2022-08-17T07:43:22.340Z,7.10
2022-08-17T07:46:18.374Z,6.15
2022-08-17T07:48:50.901Z,6.03
2022-08-17T07:51:22.270Z,6.13
2022-08-17T07:53:50.309Z,5.82
2022-08-17T07:56:40.409Z,5.70
2022-08-17T07:59:11.397Z,12.83
2022-08-17T08:01:42.024Z,6.55
2022-08-17T08:04:58.840Z,6.10
2022-08-17T08:07:26.956Z,5.50
2022-08-17T08:10:04.914Z,5.40
2022-08-17T08:12:36.945Z,5.10
2022-08-17T08:15:13.040Z,5.05
2022-08-17T08:17:51.274Z,5.18
2022-08-17T08:20:51.660Z,4.82
2022-08-17T08:23:21.720Z,5.15
2022-08-17T08:26:00.434Z,5.20
2022-08-17T08:28:35.032Z,4.80
2022-08-17T08:31:06.564Z,5.05
2022-08-17T08:33:47.883Z,5.18
2022-08-17T08:37:12.568Z,4.95
2022-08-17T08:39:20.753Z,4.95
2022-08-17T08:41:54.618Z,5.60
2022-08-17T08:44:59.798Z,4.88
2022-08-17T08:47:35.388Z,4.78
2022-08-17T08:50:36.996Z,4.25
2022-08-17T08:53:14.307Z,4.72
2022-08-17T08:55:49.456Z,4.53
2022-08-17T08:58:31.604Z,4.43
2022-08-17T09:01:25.626Z,4.32
2022-08-17T09:04:18.346Z,8.88
2022-08-17T09:06:56.458Z,4.53
2022-08-17T09:09:37.007Z,5.07
2022-08-17T09:12:10.076Z,4.50
2022-08-17T09:14:46.592Z,4.25
2022-08-17T09:17:19.136Z,4.72
2022-08-17T09:19:50.270Z,4.50
2022-08-17T09:22:31.343Z,4.50
2022-08-17T09:25:08.102Z,4.50
2022-08-17T09:27:52.041Z,4.50
2022-08-17T09:30:20.688Z,4.45
2022-08-17T09:32:55.345Z,4.40
2022-08-17T09:35:33.613Z,4.43
2022-08-17T09:38:16.511Z,4.63
2022-08-17T09:40:50.464Z,4.60
2022-08-17T09:43:27.252Z,4.57
2022-08-17T09:45:58.169Z,5.25
2022-08-17T09:48:28.699Z,5.32
2022-08-17T09:51:04.456Z,4.40
2022-08-17T09:53:34.095Z,4.03
2022-08-17T09:56:12.509Z,4.40
2022-08-17T09:58:51.626Z,4.60
2022-08-17T10:01:29.107Z,4.35
2022-08-17T10:04:18.770Z,4.32
2022-08-17T10:06:52.772Z,4.40
2022-08-17T10:09:29.987Z,4.32
2022-08-17T10:12:21.493Z,4.00
2022-08-17T10:15:13.368Z,3.90
2022-08-17T10:17:46.505Z,4.10
2022-08-17T10:20:18.776Z,4.05
2022-08-17T10:23:06.826Z,3.90
2022-08-17T10:26:09.959Z,4.07
2022-08-17T10:28:43.520Z,4.30
2022-08-17T10:34:19.152Z,4.03
2022-08-17T10:36:52.662Z,4.18
2022-08-17T10:39:27.337Z,3.95
2022-08-17T10:41:58.797Z,4.03
2022-08-17T10:44:46.830Z,4.30
2022-08-17T10:47:16.700Z,4.20
2022-08-17T10:49:48.050Z,4.13
2022-08-17T10:52:48.743Z,4.60
2022-08-17T10:55:18.929Z,4.40
2022-08-17T10:57:49.597Z,4.18
2022-08-17T11:00:59.229Z,4.30
2022-08-17T11:03:27.694Z,4.50
2022-08-17T11:06:01.398Z,5.25
2022-08-17T11:09:00.725Z,5.60
2022-08-17T11:11:52.693Z,5.68
2022-08-17T11:14:50.122Z,5.85
2022-08-17T11:17:41.498Z,5.93
2022-08-17T11:20:32.393Z,6.00
2022-08-17T11:23:18.380Z,5.93
2022-08-17T11:25:50.545Z,6.50
2022-08-17T11:28:21.062Z,6.57
2022-08-17T11:30:50.878Z,7.37
2022-08-17T11:33:53.539Z,8.02
2022-08-17T11:36:34.689Z,8.70
2022-08-17T11:39:06.506Z,8.88
2022-08-17T11:41:41.693Z,9.40
2022-08-17T11:44:24.069Z,9.23
2022-08-17T11:47:27.666Z,14.60
2022-08-17T11:50:27.880Z,10.30
2022-08-17T11:52:56.209Z,10.55
2022-08-17T11:56:13.272Z,10.68
2022-08-17T11:58:42.834Z,10.90
2022-08-17T12:01:13.798Z,10.87
2022-08-17T12:03:55.812Z,10.85
2022-08-17T12:06:49.426Z,10.77
2022-08-17T12:09:20.131Z,10.73
2022-08-17T12:11:55.382Z,10.63
2022-08-17T12:15:08.952Z,11.48
2022-08-17T12:17:51.901Z,11.35
2022-08-17T12:20:23.214Z,11.68
2022-08-17T12:22:57.607Z,11.07
2022-08-17T12:25:31.386Z,11.53
2022-08-17T12:28:06.070Z,14.83
2022-08-17T12:30:36.412Z,12.93
2022-08-17T12:33:04.455Z,10.10
2022-08-17T12:35:35.360Z,11.88
2022-08-17T12:38:06.453Z,11.02
2022-08-17T12:40:55.660Z,12.13
2022-08-17T12:43:29.219Z,11.02
2022-08-17T12:46:01.157Z,12.02
2022-08-17T12:48:59.618Z,12.90
2022-08-17T12:51:29.385Z,13.38
2022-08-17T12:53:58.638Z,12.95
2022-08-17T12:56:26.695Z,13.10
2022-08-17T12:58:55.582Z,38.90
2022-08-17T13:01:25.141Z,12.63
2022-08-17T13:03:57.215Z,12.23
2022-08-17T13:06:31.461Z,14.50
2022-08-17T13:09:10.165Z,13.63
2022-08-17T13:11:48.109Z,13.48
2022-08-17T13:14:18.350Z,13.48
2022-08-17T13:16:52.790Z,14.15
2022-08-17T13:19:40.150Z,13.48
2022-08-17T13:22:12.762Z,16.10
2022-08-17T13:24:53.050Z,15.40
2022-08-17T13:27:23.046Z,16.45
2022-08-17T13:29:53.940Z,14.98
2022-08-17T13:32:24.424Z,15.02
2022-08-17T13:35:11.857Z,17.45
2022-08-17T13:37:58.430Z,16.00
2022-08-17T13:40:44.094Z,14.82
2022-08-17T13:43:12.981Z,15.70
2022-08-17T13:45:52.951Z,14.70
2022-08-17T13:48:23.910Z,16.07
2022-08-17T13:51:07.184Z,17.93
2022-08-17T13:53:50.515Z,16.13
2022-08-17T13:56:45.239Z,14.45
2022-08-17T13:59:15.494Z,15.53
2022-08-17T14:01:48.522Z,16.23
2022-08-17T14:04:25.516Z,17.77
2022-08-17T14:06:57.104Z,18.42
2022-08-17T14:09:34.861Z,16.23
2022-08-17T14:12:09.648Z,19.27
2022-08-17T14:14:37.666Z,19.40
2022-08-17T14:17:06.189Z,18.73
2022-08-17T14:19:35.922Z,16.10
2022-08-17T14:22:04.937Z,17.87
2022-08-17T14:24:35.102Z,18.27
2022-08-17T14:27:05.520Z,18.83
2022-08-17T14:29:35.196Z,18.05
2022-08-17T14:32:08.489Z,18.47
2022-08-17T14:34:36.345Z,17.52
2022-08-17T14:37:04.332Z,20.98
2022-08-17T14:39:32.773Z,22.63
2022-08-17T14:42:02.100Z,19.75
2022-08-17T14:44:29.976Z,18.67
2022-08-17T14:46:59.260Z,19.73
2022-08-17T14:49:28.075Z,19.23
2022-08-17T14:51:55.880Z,21.97
2022-08-17T14:54:33.566Z,21.83
2022-08-17T14:57:22.877Z,20.00
2022-08-17T14:59:54.245Z,17.73
2022-08-17T15:02:30.251Z,15.57
2022-08-17T15:05:02.556Z,15.60
2022-08-17T15:07:31.361Z,14.65
2022-08-17T15:10:01.339Z,15.40
2022-08-17T15:12:33.274Z,16.88
2022-08-17T15:15:04.577Z,15.60
2022-08-17T15:17:44.817Z,20.45
2022-08-17T15:20:15.798Z,18.80
2022-08-17T15:22:44.399Z,21.17
2022-08-17T15:25:13.132Z,23.48
2022-08-17T15:27:41.267Z,24.42
2022-08-17T15:30:10.508Z,25.17
2022-08-17T15:32:46.847Z,24.92
2022-08-17T15:35:28.296Z,25.10
2022-08-17T15:37:58.494Z,26.38
2022-08-17T15:40:26.693Z,25.80
2022-08-17T15:42:55.005Z,28.50
2022-08-17T15:45:26.693Z,28.15
2022-08-17T15:47:56.045Z,33.33
2022-08-17T15:50:24.027Z,32.63
2022-08-17T15:53:00.855Z,33.13
2022-08-17T15:55:30.411Z,32.83
2022-08-17T15:57:58.385Z,31.50
2022-08-17T16:00:28.411Z,32.88
2022-08-17T16:03:46.438Z,33.10
2022-08-17T16:05:47.781Z,32.08
2022-08-17T16:08:20.682Z,32.15
2022-08-17T16:10:49.904Z,30.63
2022-08-17T16:13:18.294Z,29.25
2022-08-17T16:15:56.648Z,26.80
2022-08-17T16:18:31.029Z,27.10
2022-08-17T16:21:21.465Z,26.25
2022-08-17T16:23:51.318Z,25.55
2022-08-17T16:26:19.922Z,37.83
2022-08-17T16:28:47.838Z,32.75
2022-08-17T16:31:15.888Z,30.10
2022-08-17T16:33:56.889Z,32.03
2022-08-17T16:36:33.497Z,33.67
2022-08-17T16:39:01.629Z,34.17
2022-08-17T16:41:44.983Z,38.38
2022-08-17T16:44:15.316Z,38.20
2022-08-17T16:46:45.740Z,37.97
2022-08-17T16:49:25.756Z,39.17
2022-08-17T16:52:06.063Z,42.00
2022-08-17T16:54:35.503Z,42.03
2022-08-17T16:57:05.088Z,37.70
2022-08-17T16:59:41.042Z,35.42
2022-08-17T17:02:12.869Z,34.88
2022-08-17T17:04:46.650Z,33.60
2022-08-17T17:07:25.920Z,35.85
2022-08-17T17:09:55.484Z,34.63
2022-08-17T17:13:00.942Z,35.35
2022-08-17T17:15:12.831Z,36.20
2022-08-17T17:17:41.257Z,37.33
2022-08-17T17:20:13.957Z,37.67
2022-08-17T17:22:47.990Z,42.47
2022-08-17T17:25:24.020Z,45.63
2022-08-17T17:27:58.908Z,41.92
2022-08-17T17:30:31.053Z,45.45
2022-08-17T17:33:03.046Z,48.47
2022-08-17T17:35:36.962Z,49.33
2022-08-17T17:38:06.519Z,49.95
2022-08-17T17:40:38.456Z,51.33
2022-08-17T17:43:37.255Z,51.90
2022-08-17T17:46:27.960Z,52.97
2022-08-17T17:48:55.213Z,52.57
2022-08-17T17:51:54.826Z,53.95
2022-08-17T17:54:28.053Z,54.10
2022-08-17T17:57:01.466Z,83.87
2022-08-17T17:59:34.914Z,52.78
2022-08-17T18:02:07.602Z,53.28
2022-08-17T18:04:41.332Z,52.95
2022-08-17T18:07:19.916Z,53.85
2022-08-17T18:10:01.056Z,50.78
2022-08-17T18:12:35.705Z,50.28
2022-08-17T18:15:23.705Z,50.42
2022-08-17T18:18:03.717Z,47.88
2022-08-17T18:20:43.223Z,46.22
2022-08-17T18:23:27.691Z,46.60
2022-08-17T18:25:56.352Z,46.97
2022-08-17T18:28:26.250Z,46.40
2022-08-17T18:31:13.069Z,46.55
2022-08-17T18:33:43.665Z,48.67
2022-08-17T18:36:12.474Z,47.58
2022-08-17T18:38:43.186Z,47.13
2022-08-17T18:41:23.676Z,46.55
2022-08-17T18:44:01.255Z,46.65
2022-08-17T18:46:33.073Z,48.85
2022-08-17T18:49:02.631Z,49.07
2022-08-17T18:51:40.981Z,48.53
2022-08-17T18:54:21.312Z,50.03
2022-08-17T18:56:54.389Z,69.47
2022-08-17T18:59:40.263Z,54.77
2022-08-17T19:02:43.830Z,50.00
2022-08-17T19:05:27.755Z,48.28
2022-08-17T19:07:55.763Z,49.92
2022-08-17T19:10:28.669Z,49.38
2022-08-17T19:13:00.599Z,49.20
2022-08-17T19:15:32.366Z,47.00
2022-08-17T19:18:04.704Z,48.63
2022-08-17T19:20:35.933Z,49.57
2022-08-17T19:23:09.604Z,50.67
2022-08-17T19:25:42.242Z,48.50
2022-08-17T19:28:22.543Z,48.83
2022-08-17T19:30:55.624Z,47.87
2022-08-17T19:33:23.729Z,48.28
2022-08-17T19:36:00.443Z,51.08
2022-08-17T19:38:37.282Z,51.67
2022-08-17T19:41:12.595Z,49.75
2022-08-17T19:43:52.524Z,53.72
2022-08-17T19:46:26.175Z,51.50
2022-08-17T19:49:00.190Z,51.17
2022-08-17T19:51:33.442Z,49.75
2022-08-17T19:54:07.134Z,52.73
2022-08-17T19:56:45.281Z,52.42
2022-08-17T19:59:17.431Z,52.42
2022-08-17T20:01:50.744Z,49.47
2022-08-17T20:04:38.589Z,48.80
2022-08-17T20:07:08.848Z,48.78
2022-08-17T20:09:40.163Z,47.92
2022-08-17T20:12:12.461Z,49.13
2022-08-17T20:14:53.680Z,50.23
2022-08-17T20:17:25.183Z,50.97
2022-08-17T20:19:59.968Z,50.38
2022-08-17T20:22:30.586Z,49.37
2022-08-17T20:25:09.642Z,48.88
2022-08-17T20:27:50.006Z,52.20
2022-08-17T20:30:34.650Z,51.17
2022-08-17T20:33:03.366Z,52.08
2022-08-17T20:35:32.475Z,52.70
2022-08-17T20:38:02.982Z,54.60
2022-08-17T20:40:35.179Z,56.20
2022-08-17T20:43:37.034Z,51.88
2022-08-17T20:46:24.516Z,52.30
2022-08-17T20:48:54.333Z,51.53
2022-08-17T20:51:29.189Z,53.17
2022-08-17T20:54:35.571Z,53.03
2022-08-17T20:57:06.169Z,53.17
2022-08-17T20:59:56.539Z,53.47
2022-08-17T21:02:27.905Z,52.30
2022-08-17T21:05:02.045Z,50.60
2022-08-17T21:07:53.138Z,51.57
2022-08-17T21:10:32.070Z,49.72
2022-08-17T21:13:05.929Z,51.17
2022-08-17T21:15:39.910Z,50.60
2022-08-17T21:18:12.781Z,52.30
2022-08-17T21:20:45.427Z,50.28
2022-08-17T21:23:32.736Z,50.58
2022-08-17T21:26:13.793Z,50.78
2022-08-17T21:29:01.102Z,51.83
2022-08-17T21:31:34.726Z,48.83
2022-08-17T21:34:27.374Z,49.47
2022-08-17T21:36:56.809Z,49.17
2022-08-17T21:39:33.188Z,51.67
2022-08-17T21:42:01.636Z,50.63
2022-08-17T21:44:33.514Z,50.72
2022-08-17T21:47:16.590Z,50.25
2022-08-17T21:49:46.323Z,52.70
2022-08-17T21:52:15.750Z,51.00
2022-08-17T21:54:50.207Z,48.63
2022-08-17T21:57:21.177Z,48.83
2022-08-17T21:59:52.593Z,47.85
2022-08-17T22:02:22.107Z,46.85
2022-08-17T22:05:03.943Z,47.28
2022-08-17T22:07:38.706Z,47.38
2022-08-17T22:10:09.232Z,48.72
2022-08-17T22:12:37.303Z,47.45
2022-08-17T22:15:09.696Z,47.38
2022-08-17T22:17:41.229Z,48.63
2022-08-17T22:20:14.366Z,48.35
2022-08-17T22:23:24.240Z,51.30
2022-08-17T22:26:00.808Z,50.30
2022-08-17T22:28:41.004Z,49.35
2022-08-17T22:31:10.667Z,49.63
2022-08-17T22:33:45.819Z,49.42
2022-08-17T22:36:29.171Z,48.22
2022-08-17T22:38:58.654Z,46.55
2022-08-17T22:41:37.201Z,46.70
2022-08-17T22:44:23.194Z,47.95
2022-08-17T22:47:02.244Z,48.87
2022-08-17T22:49:34.225Z,50.15
2022-08-17T22:52:23.991Z,50.28
2022-08-17T22:55:25.221Z,51.23
2022-08-17T22:58:10.921Z,52.88
2022-08-17T23:00:41.874Z,48.42
2022-08-17T23:03:15.958Z,46.58
2022-08-17T23:05:47.720Z,46.85
2022-08-17T23:08:21.073Z,46.77
2022-08-17T23:10:49.327Z,47.30
2022-08-17T23:13:17.328Z,49.33
2022-08-17T23:15:48.193Z,49.50
2022-08-17T23:18:17.515Z,52.17
2022-08-17T23:20:45.806Z,51.33
2022-08-17T23:23:18.820Z,49.25
2022-08-17T23:25:49.874Z,46.30
2022-08-17T23:28:17.629Z,47.72
2022-08-17T23:30:46.581Z,49.58
2022-08-17T23:33:19.199Z,50.47
2022-08-17T23:35:47.193Z,50.42
2022-08-17T23:38:16.426Z,50.95
2022-08-17T23:40:44.413Z,51.42
2022-08-17T23:43:23.709Z,49.65
2022-08-17T23:45:53.923Z,50.33
2022-08-17T23:48:32.645Z,49.97
2022-08-17T23:51:09.014Z,50.10
2022-08-17T23:53:41.854Z,48.88
2022-08-17T23:56:11.206Z,47.67
2022-08-17T23:58:40.462Z,48.38
